createdAt,value
2023-05-10T00:00:22.965Z,15.55
2023-05-10T00:01:22.970Z,15.49
2023-05-10T00:02:23.025Z,15.49
2023-05-10T00:03:23.049Z,15.49
2023-05-10T00:04:22.934Z,15.46
2023-05-10T00:05:22.925Z,15.46
2023-05-10T00:06:22.907Z,15.46
2023-05-10T00:07:22.944Z,15.46
2023-05-10T00:08:22.900Z,15.49
2023-05-10T00:09:22.884Z,15.49
2023-05-10T00:10:22.863Z,15.47
2023-05-10T00:11:23.309Z,15.46
2023-05-10T00:12:22.854Z,15.46
2023-05-10T00:13:22.897Z,15.44
2023-05-10T00:14:22.812Z,15.42
2023-05-10T00:15:22.804Z,15.43
2023-05-10T00:16:22.915Z,15.43
2023-05-10T00:17:22.812Z,15.43
2023-05-10T00:18:22.765Z,15.39
2023-05-10T00:19:22.755Z,15.35
2023-05-10T00:20:22.754Z,15.35
2023-05-10T00:21:22.750Z,15.28
2023-05-10T00:22:22.757Z,15.28
2023-05-10T00:23:22.710Z,15.25
2023-05-10T00:24:22.712Z,15.25
2023-05-10T00:25:22.736Z,15.21
2023-05-10T00:26:22.715Z,15.19
2023-05-10T00:27:22.712Z,15.19
2023-05-10T00:28:22.669Z,15.14
2023-05-10T00:29:22.650Z,15.07
2023-05-10T00:30:22.649Z,15.03
2023-05-10T00:31:22.671Z,15.04
2023-05-10T00:32:22.730Z,15.00
2023-05-10T00:33:22.619Z,15.00
2023-05-10T00:34:22.605Z,15.02
2023-05-10T00:35:22.591Z,14.99
2023-05-10T00:36:22.613Z,14.96
2023-05-10T00:37:22.612Z,14.96
2023-05-10T00:38:22.565Z,14.91
2023-05-10T00:39:22.554Z,14.88
2023-05-10T00:40:22.574Z,14.88
2023-05-10T00:41:22.555Z,14.84
2023-05-10T00:42:22.519Z,14.81
2023-05-10T00:43:22.510Z,14.82
2023-05-10T00:44:22.500Z,14.79
2023-05-10T00:45:22.508Z,14.78
2023-05-10T00:46:22.575Z,14.73
2023-05-10T00:47:22.488Z,14.69
2023-05-10T00:48:22.468Z,14.70
2023-05-10T00:49:22.485Z,14.69
2023-05-10T00:50:22.469Z,14.69
2023-05-10T00:51:22.425Z,14.68
2023-05-10T00:52:22.415Z,14.65
2023-05-10T00:53:22.408Z,14.65
2023-05-10T00:54:22.409Z,14.66
2023-05-10T00:55:22.405Z,14.66
2023-05-10T00:56:22.367Z,14.68
2023-05-10T00:57:22.362Z,14.65
2023-05-10T00:58:22.348Z,14.66
2023-05-10T00:59:22.367Z,14.65
2023-05-10T01:00:22.329Z,14.63
2023-05-10T01:01:22.381Z,14.63
2023-05-10T01:02:22.416Z,14.65
2023-05-10T01:03:22.397Z,14.65
2023-05-10T01:04:22.311Z,14.62
2023-05-10T01:05:22.356Z,14.62
2023-05-10T01:06:22.276Z,14.62
2023-05-10T01:07:22.253Z,14.63
2023-05-10T01:08:22.284Z,14.60
2023-05-10T01:09:22.268Z,14.59
2023-05-10T01:10:22.235Z,14.58
2023-05-10T01:11:22.217Z,14.53
2023-05-10T01:12:22.276Z,14.48
2023-05-10T01:13:22.247Z,14.48
2023-05-10T01:14:22.182Z,14.50
2023-05-10T01:15:22.171Z,14.50
2023-05-10T01:16:22.233Z,14.48
2023-05-10T01:17:22.180Z,14.45
2023-05-10T01:18:22.157Z,14.50
2023-05-10T01:19:22.140Z,14.47
2023-05-10T01:20:22.127Z,14.50
2023-05-10T01:21:22.106Z,14.50
2023-05-10T01:22:22.145Z,14.53
2023-05-10T01:23:22.105Z,14.50
2023-05-10T01:24:22.098Z,14.50
2023-05-10T01:25:22.078Z,14.48
2023-05-10T01:26:22.062Z,14.44
2023-05-10T01:27:22.073Z,14.41
2023-05-10T01:28:22.053Z,14.35
2023-05-10T01:29:22.023Z,14.36
2023-05-10T01:30:22.422Z,14.36
2023-05-10T01:31:22.023Z,14.35
2023-05-10T01:32:22.024Z,14.33
2023-05-10T01:33:21.985Z,14.32
2023-05-10T01:34:21.971Z,14.28
2023-05-10T01:35:21.966Z,14.28
2023-05-10T01:36:21.990Z,14.23
2023-05-10T01:37:21.979Z,14.20
2023-05-10T01:38:21.941Z,14.18
2023-05-10T01:39:21.905Z,14.15
2023-05-10T01:40:21.977Z,14.11
2023-05-10T01:41:21.922Z,14.14
2023-05-10T01:42:21.888Z,14.12
2023-05-10T01:43:21.879Z,14.14
2023-05-10T01:44:21.892Z,14.14
2023-05-10T01:45:21.845Z,14.12
2023-05-10T01:46:21.897Z,14.12
2023-05-10T01:47:21.842Z,14.10
2023-05-10T01:48:21.834Z,14.10
2023-05-10T01:49:21.800Z,14.10
2023-05-10T01:50:21.828Z,14.08
2023-05-10T01:51:21.804Z,14.11
2023-05-10T01:52:21.773Z,14.08
2023-05-10T01:53:21.759Z,14.10
2023-05-10T01:54:21.763Z,14.08
2023-05-10T01:55:21.757Z,14.08
2023-05-10T01:56:21.723Z,14.10
2023-05-10T01:57:21.710Z,14.12
2023-05-10T01:58:21.728Z,14.07
2023-05-10T01:59:21.742Z,14.07
2023-05-10T02:00:21.718Z,14.03
2023-05-10T02:01:21.727Z,14.03
2023-05-10T02:02:21.674Z,13.97
2023-05-10T02:03:21.663Z,14.00
2023-05-10T02:04:21.674Z,13.99
2023-05-10T02:05:21.657Z,13.97
2023-05-10T02:06:21.628Z,13.96
2023-05-10T02:07:21.612Z,14.00
2023-05-10T02:08:21.623Z,14.00
2023-05-10T02:09:21.618Z,13.97
2023-05-10T02:10:21.575Z,13.99
2023-05-10T02:11:21.558Z,13.96
2023-05-10T02:12:21.575Z,13.96
2023-05-10T02:13:21.660Z,13.97
2023-05-10T02:14:21.570Z,13.95
2023-05-10T02:15:21.525Z,13.93
2023-05-10T02:16:21.559Z,13.92
2023-05-10T02:17:21.496Z,13.95
2023-05-10T02:18:21.566Z,13.92
2023-05-10T02:19:21.510Z,13.92
2023-05-10T02:20:21.493Z,13.93
2023-05-10T02:21:21.466Z,13.92
2023-05-10T02:22:28.387Z,13.87
2023-05-10T02:23:21.446Z,13.89
2023-05-10T02:24:21.439Z,13.85
2023-05-10T02:25:21.411Z,13.86
2023-05-10T02:26:21.424Z,13.85
2023-05-10T02:27:21.395Z,13.87
2023-05-10T02:28:21.408Z,13.87
2023-05-10T02:29:21.379Z,13.89
2023-05-10T02:30:21.375Z,13.87
2023-05-10T02:31:21.475Z,13.89
2023-05-10T02:32:21.366Z,13.85
2023-05-10T02:33:21.341Z,13.87
2023-05-10T02:34:21.327Z,13.86
2023-05-10T02:35:21.303Z,13.83
2023-05-10T02:36:21.305Z,13.85
2023-05-10T02:37:21.299Z,13.87
2023-05-10T02:38:21.277Z,13.87
2023-05-10T02:39:21.261Z,13.86
2023-05-10T02:40:21.259Z,13.87
2023-05-10T02:41:21.267Z,13.87
2023-05-10T02:42:21.254Z,13.89
2023-05-10T02:43:21.215Z,13.87
2023-05-10T02:44:21.260Z,13.87
2023-05-10T02:45:21.203Z,13.86
2023-05-10T02:46:21.242Z,13.89
2023-05-10T02:47:21.180Z,13.90
2023-05-10T02:48:21.175Z,13.90
2023-05-10T02:49:21.180Z,13.92
2023-05-10T02:50:21.151Z,13.87
2023-05-10T02:51:21.146Z,13.89
2023-05-10T02:52:21.133Z,13.87
2023-05-10T02:53:21.139Z,13.86
2023-05-10T02:54:21.105Z,13.83
2023-05-10T02:55:21.097Z,13.81
2023-05-10T02:56:21.097Z,13.81
2023-05-10T02:57:21.071Z,13.81
2023-05-10T02:58:21.099Z,13.78
2023-05-10T02:59:21.042Z,13.78
2023-05-10T03:00:21.061Z,13.79
2023-05-10T03:01:21.030Z,13.79
2023-05-10T03:02:21.061Z,13.78
2023-05-10T03:03:21.026Z,13.78
2023-05-10T03:04:21.020Z,13.74
2023-05-10T03:05:21.003Z,13.71
2023-05-10T03:06:20.971Z,13.74
2023-05-10T03:07:20.961Z,13.72
2023-05-10T03:08:20.965Z,13.72
2023-05-10T03:09:21.599Z,13.71
2023-05-10T03:10:20.901Z,13.70
2023-05-10T03:11:20.915Z,13.72
2023-05-10T03:12:20.914Z,13.70
2023-05-10T03:13:20.954Z,13.67
2023-05-10T03:14:20.908Z,13.67
2023-05-10T03:15:20.892Z,13.72
2023-05-10T03:16:20.916Z,13.75
2023-05-10T03:17:20.851Z,13.79
2023-05-10T03:18:20.857Z,13.78
2023-05-10T03:19:20.801Z,13.81
2023-05-10T03:20:20.785Z,13.81
2023-05-10T03:21:20.811Z,13.85
2023-05-10T03:22:20.810Z,13.83
2023-05-10T03:23:20.805Z,13.75
2023-05-10T03:24:20.810Z,13.77
2023-05-10T03:25:20.765Z,13.78
2023-05-10T03:26:20.760Z,13.78
2023-05-10T03:27:20.750Z,13.81
2023-05-10T03:28:20.711Z,13.81
2023-05-10T03:29:20.676Z,13.83
2023-05-10T03:30:20.656Z,13.85
2023-05-10T03:31:20.674Z,13.81
2023-05-10T03:32:20.648Z,13.79
2023-05-10T03:33:20.641Z,13.78
2023-05-10T03:34:20.617Z,13.75
2023-05-10T03:35:20.600Z,13.71
2023-05-10T03:36:20.593Z,13.67
2023-05-10T03:37:20.596Z,13.71
2023-05-10T03:38:20.587Z,13.68
2023-05-10T03:39:20.564Z,13.70
2023-05-10T03:40:20.558Z,13.68
2023-05-10T03:41:20.539Z,13.70
2023-05-10T03:42:20.558Z,13.67
2023-05-10T03:43:20.518Z,13.70
2023-05-10T03:44:20.510Z,13.68
2023-05-10T03:45:20.490Z,13.71
2023-05-10T03:46:20.577Z,13.71
2023-05-10T03:47:20.809Z,13.71
2023-05-10T03:48:20.475Z,13.70
2023-05-10T03:49:20.450Z,13.71
2023-05-10T03:50:20.488Z,13.70
2023-05-10T03:51:20.471Z,13.71
2023-05-10T03:52:20.444Z,13.67
2023-05-10T03:53:20.412Z,13.70
2023-05-10T03:54:20.406Z,13.71
2023-05-10T03:55:20.383Z,13.68
2023-05-10T03:56:20.394Z,13.70
2023-05-10T03:57:20.370Z,13.68
2023-05-10T03:58:20.352Z,13.68
2023-05-10T03:59:20.342Z,13.68
2023-05-10T04:00:20.345Z,13.67
2023-05-10T04:01:20.342Z,13.65
2023-05-10T04:02:20.387Z,13.63
2023-05-10T04:03:20.341Z,13.59
2023-05-10T04:04:20.345Z,13.59
2023-05-10T04:05:20.314Z,13.56
2023-05-10T04:06:20.325Z,13.57
2023-05-10T04:07:20.265Z,13.52
2023-05-10T04:08:20.261Z,13.50
2023-05-10T04:09:20.242Z,13.49
2023-05-10T04:10:20.292Z,13.44
2023-05-10T04:11:20.216Z,13.44
2023-05-10T04:12:20.215Z,13.39
2023-05-10T04:13:20.253Z,13.38
2023-05-10T04:14:20.196Z,13.38
2023-05-10T04:15:20.179Z,13.35
2023-05-10T04:16:20.213Z,13.37
2023-05-10T04:17:20.208Z,13.31
2023-05-10T04:18:20.151Z,13.28
2023-05-10T04:19:20.144Z,13.25
2023-05-10T04:20:20.132Z,13.27
2023-05-10T04:21:20.102Z,13.28
2023-05-10T04:22:20.100Z,13.25
2023-05-10T04:23:20.079Z,13.23
2023-05-10T04:24:20.085Z,13.23
2023-05-10T04:25:20.065Z,13.27
2023-05-10T04:26:20.110Z,13.25
2023-05-10T04:27:20.043Z,13.31
2023-05-10T04:28:20.028Z,13.30
2023-05-10T04:29:20.043Z,13.31
2023-05-10T04:30:20.015Z,13.31
2023-05-10T04:31:20.107Z,13.31
2023-05-10T04:32:20.006Z,13.31
2023-05-10T04:33:19.985Z,13.31
2023-05-10T04:34:19.985Z,13.28
2023-05-10T04:35:19.952Z,13.28
2023-05-10T04:36:19.938Z,13.31
2023-05-10T04:37:19.946Z,13.30
2023-05-10T04:38:19.955Z,13.33
2023-05-10T04:39:19.914Z,13.30
2023-05-10T04:40:19.897Z,13.33
2023-05-10T04:41:19.899Z,13.35
2023-05-10T04:42:19.872Z,13.35
2023-05-10T04:43:20.554Z,13.37
2023-05-10T04:44:19.852Z,13.31
2023-05-10T04:45:19.892Z,13.30
2023-05-10T04:46:19.923Z,13.33
2023-05-10T04:47:19.945Z,13.30
2023-05-10T04:48:19.837Z,13.28
2023-05-10T04:49:19.797Z,13.28
2023-05-10T04:50:19.822Z,13.28
2023-05-10T04:51:19.802Z,13.28
2023-05-10T04:52:19.774Z,13.31
2023-05-10T04:53:19.753Z,13.28
2023-05-10T04:54:19.733Z,13.31
2023-05-10T04:55:19.792Z,13.33
2023-05-10T04:56:19.713Z,13.35
2023-05-10T04:57:19.782Z,13.35
2023-05-10T04:58:19.693Z,13.38
2023-05-10T04:59:19.748Z,13.37
2023-05-10T05:00:19.672Z,13.38
2023-05-10T05:01:19.792Z,13.35
2023-05-10T05:02:19.699Z,13.38
2023-05-10T05:03:19.775Z,13.35
2023-05-10T05:04:19.633Z,13.33
2023-05-10T05:05:19.632Z,13.33
2023-05-10T05:06:19.630Z,13.37
2023-05-10T05:07:19.616Z,13.39
2023-05-10T05:08:19.607Z,13.41
2023-05-10T05:09:19.584Z,13.44
2023-05-10T05:10:19.794Z,13.42
2023-05-10T05:11:19.596Z,13.41
2023-05-10T05:12:19.542Z,13.42
2023-05-10T05:13:19.654Z,13.42
2023-05-10T05:14:19.522Z,13.49
2023-05-10T05:15:19.831Z,13.52
2023-05-10T05:16:19.565Z,13.49
2023-05-10T05:17:19.532Z,13.49
2023-05-10T05:18:19.483Z,13.53
2023-05-10T05:19:19.555Z,13.52
2023-05-10T05:20:19.600Z,13.52
2023-05-10T05:21:19.452Z,13.56
2023-05-10T05:22:19.728Z,13.42
2023-05-10T05:23:19.468Z,13.39
2023-05-10T05:24:19.421Z,13.42
2023-05-10T05:25:19.713Z,13.38
2023-05-10T05:26:19.400Z,13.42
2023-05-10T05:27:19.392Z,13.44
2023-05-10T05:28:19.373Z,13.44
2023-05-10T05:29:19.376Z,13.47
2023-05-10T05:30:19.489Z,13.46
2023-05-10T05:31:19.362Z,13.47
2023-05-10T05:32:19.341Z,13.50
2023-05-10T05:33:19.331Z,13.52
2023-05-10T05:34:19.350Z,13.54
2023-05-10T05:35:19.477Z,13.52
2023-05-10T05:36:19.289Z,13.49
2023-05-10T05:37:19.305Z,13.47
2023-05-10T05:38:19.268Z,13.47
2023-05-10T05:39:19.288Z,13.46
2023-05-10T05:40:19.255Z,13.50
2023-05-10T05:41:19.246Z,13.49
2023-05-10T05:42:19.225Z,13.52
2023-05-10T05:43:19.400Z,13.49
2023-05-10T05:44:19.205Z,13.52
2023-05-10T05:45:19.420Z,13.52
2023-05-10T05:46:19.285Z,13.52
2023-05-10T05:47:19.186Z,13.47
2023-05-10T05:48:19.176Z,13.42
2023-05-10T05:49:19.154Z,13.42
2023-05-10T05:50:19.159Z,13.44
2023-05-10T05:51:19.130Z,13.44
2023-05-10T05:52:19.157Z,13.47
2023-05-10T05:53:19.131Z,13.44
2023-05-10T05:54:19.096Z,13.41
2023-05-10T05:55:19.375Z,13.41
2023-05-10T05:56:19.101Z,13.37
2023-05-10T05:57:19.081Z,13.33
2023-05-10T05:58:19.076Z,13.33
2023-05-10T05:59:19.084Z,13.31
2023-05-10T06:00:19.091Z,13.30
2023-05-10T06:01:19.179Z,13.30
2023-05-10T06:02:19.179Z,13.28
2023-05-10T06:03:19.127Z,13.25
2023-05-10T06:04:19.001Z,13.23
2023-05-10T06:05:19.043Z,13.23
2023-05-10T06:06:19.040Z,13.22
2023-05-10T06:07:18.989Z,13.23
2023-05-10T06:08:18.940Z,13.23
2023-05-10T06:09:18.968Z,13.22
2023-05-10T06:10:18.921Z,13.23
2023-05-10T06:11:19.015Z,13.27
2023-05-10T06:12:18.924Z,13.25
2023-05-10T06:13:18.928Z,13.27
2023-05-10T06:14:18.878Z,13.27
2023-05-10T06:15:18.971Z,13.25
2023-05-10T06:16:18.911Z,13.28
2023-05-10T06:17:18.854Z,13.27
2023-05-10T06:18:18.830Z,13.27
2023-05-10T06:19:18.838Z,13.23
2023-05-10T06:20:18.830Z,13.27
2023-05-10T06:21:18.819Z,13.25
2023-05-10T06:22:18.855Z,13.30
2023-05-10T06:23:18.794Z,13.28
2023-05-10T06:24:18.863Z,13.30
2023-05-10T06:25:19.018Z,13.27
2023-05-10T06:26:18.765Z,13.30
2023-05-10T06:27:18.741Z,13.28
2023-05-10T06:28:18.721Z,13.28
2023-05-10T06:29:18.752Z,13.25
2023-05-10T06:30:18.720Z,13.22
2023-05-10T06:31:18.759Z,13.22
2023-05-10T06:32:18.686Z,13.22
2023-05-10T06:33:18.672Z,13.25
2023-05-10T06:34:18.699Z,13.25
2023-05-10T06:35:18.921Z,13.27
2023-05-10T06:36:18.640Z,13.25
2023-05-10T06:37:18.664Z,13.25
2023-05-10T06:38:18.632Z,13.27
2023-05-10T06:39:18.635Z,13.28
2023-05-10T06:40:18.649Z,13.27
2023-05-10T06:41:18.651Z,13.25
2023-05-10T06:42:18.568Z,13.23
2023-05-10T06:43:18.597Z,13.25
2023-05-10T06:44:18.579Z,13.27
2023-05-10T06:45:18.959Z,13.28
2023-05-10T06:46:18.701Z,13.35
2023-05-10T06:47:18.603Z,13.35
2023-05-10T06:48:18.572Z,13.31
2023-05-10T06:49:18.554Z,13.31
2023-05-10T06:50:18.608Z,13.31
2023-05-10T06:51:18.489Z,13.33
2023-05-10T06:52:18.484Z,13.37
2023-05-10T06:53:18.630Z,13.35
2023-05-10T06:54:18.701Z,13.33
2023-05-10T06:55:18.599Z,13.33
2023-05-10T06:56:18.426Z,13.30
2023-05-10T06:57:30.549Z,13.31
2023-05-10T06:58:18.444Z,13.33
2023-05-10T06:59:18.465Z,13.35
2023-05-10T07:00:18.660Z,13.38
2023-05-10T07:01:18.556Z,13.35
2023-05-10T07:02:18.378Z,13.41
2023-05-10T07:03:18.509Z,13.44
2023-05-10T07:04:18.354Z,13.47
2023-05-10T07:05:18.470Z,13.53
2023-05-10T07:06:29.209Z,13.57
2023-05-10T07:07:18.323Z,13.65
2023-05-10T07:08:18.301Z,13.71
2023-05-10T07:09:18.324Z,13.74
2023-05-10T07:10:18.287Z,13.68
2023-05-10T07:11:18.268Z,13.57
2023-05-10T07:12:18.336Z,13.52
2023-05-10T07:13:18.330Z,13.54
2023-05-10T07:14:18.252Z,13.57
2023-05-10T07:15:18.419Z,13.57
2023-05-10T07:16:18.251Z,13.60
2023-05-10T07:17:18.223Z,13.63
2023-05-10T07:18:18.237Z,13.65
2023-05-10T07:19:18.178Z,13.63
2023-05-10T07:20:18.186Z,13.62
2023-05-10T07:21:18.214Z,13.62
2023-05-10T07:22:18.179Z,13.65
2023-05-10T07:23:18.124Z,13.56
2023-05-10T07:24:18.124Z,13.49
2023-05-10T07:25:18.294Z,13.49
2023-05-10T07:26:18.109Z,13.47
2023-05-10T07:27:18.117Z,13.46
2023-05-10T07:28:18.082Z,13.46
2023-05-10T07:29:18.070Z,13.47
2023-05-10T07:30:18.106Z,13.44
2023-05-10T07:31:18.059Z,13.42
2023-05-10T07:32:18.086Z,13.42
2023-05-10T07:33:18.045Z,13.46
2023-05-10T07:34:18.002Z,13.53
2023-05-10T07:35:18.296Z,13.60
2023-05-10T07:36:18.040Z,13.71
2023-05-10T07:37:17.980Z,13.77
2023-05-10T07:38:17.982Z,13.90
2023-05-10T07:39:26.654Z,14.03
2023-05-10T07:40:18.013Z,14.14
2023-05-10T07:41:17.949Z,14.25
2023-05-10T07:42:17.973Z,14.35
2023-05-10T07:43:17.937Z,14.44
2023-05-10T07:44:17.891Z,14.50
2023-05-10T07:45:18.055Z,14.63
2023-05-10T07:46:17.915Z,14.79
2023-05-10T07:47:17.888Z,14.94
2023-05-10T07:48:17.859Z,15.10
2023-05-10T07:49:17.860Z,15.25
2023-05-10T07:50:17.862Z,15.36
2023-05-10T07:51:17.837Z,15.44
2023-05-10T07:52:17.850Z,15.54
2023-05-10T07:53:17.868Z,15.61
2023-05-10T07:54:17.822Z,15.72
2023-05-10T07:55:17.920Z,15.84
2023-05-10T07:56:17.797Z,15.94
2023-05-10T07:57:17.765Z,15.94
2023-05-10T07:58:17.808Z,15.92
2023-05-10T07:59:17.774Z,15.88
2023-05-10T08:00:17.745Z,15.90
2023-05-10T08:01:17.752Z,15.80
2023-05-10T08:02:17.774Z,15.67
2023-05-10T08:03:17.947Z,15.58
2023-05-10T08:04:17.741Z,15.62
2023-05-10T08:05:17.825Z,15.83
2023-05-10T08:06:17.763Z,15.79
2023-05-10T08:07:17.671Z,15.98
2023-05-10T08:08:17.659Z,16.26
2023-05-10T08:09:17.680Z,16.68
2023-05-10T08:10:17.628Z,17.27
2023-05-10T08:11:17.673Z,18.05
2023-05-10T08:12:17.587Z,18.62
2023-05-10T08:13:17.611Z,18.60
2023-05-10T08:14:17.691Z,18.71
2023-05-10T08:15:17.768Z,18.74
2023-05-10T08:16:17.635Z,18.86
2023-05-10T08:17:19.725Z,18.86
2023-05-10T08:18:17.605Z,19.02
2023-05-10T08:19:17.523Z,19.66
2023-05-10T08:20:17.565Z,20.31
2023-05-10T08:21:17.523Z,20.62
2023-05-10T08:22:17.547Z,20.21
2023-05-10T08:23:17.478Z,19.70
2023-05-10T08:24:17.533Z,19.12
2023-05-10T08:25:17.683Z,18.68
2023-05-10T08:26:17.460Z,18.25
2023-05-10T08:27:17.464Z,17.92
2023-05-10T08:28:17.435Z,17.56
2023-05-10T08:29:17.457Z,17.36
2023-05-10T08:30:17.421Z,17.20
2023-05-10T08:31:17.560Z,17.09
2023-05-10T08:32:17.415Z,17.04
2023-05-10T08:33:17.599Z,16.93
2023-05-10T08:34:17.429Z,16.86
2023-05-10T08:35:17.612Z,16.87
2023-05-10T08:36:17.342Z,17.02
2023-05-10T08:37:17.350Z,17.14
2023-05-10T08:38:17.400Z,17.26
2023-05-10T08:39:29.307Z,17.33
2023-05-10T08:40:17.360Z,17.64
2023-05-10T08:41:17.335Z,17.80
2023-05-10T08:42:17.292Z,17.72
2023-05-10T08:43:17.333Z,17.64
2023-05-10T08:44:17.285Z,17.52
2023-05-10T08:45:17.457Z,17.64
2023-05-10T08:46:17.272Z,17.59
2023-05-10T08:47:17.237Z,17.52
2023-05-10T08:48:17.223Z,17.59
2023-05-10T08:49:17.231Z,17.70
2023-05-10T08:50:17.218Z,17.67
2023-05-10T08:51:17.193Z,17.68
2023-05-10T08:52:17.180Z,17.70
2023-05-10T08:53:17.205Z,17.79
2023-05-10T08:54:17.196Z,17.82
2023-05-10T08:55:17.388Z,18.13
2023-05-10T08:56:17.170Z,18.37
2023-05-10T08:57:17.982Z,18.34
2023-05-10T08:58:17.170Z,18.18
2023-05-10T08:59:17.183Z,18.25
2023-05-10T09:00:17.394Z,18.40
2023-05-10T09:01:17.111Z,18.77
2023-05-10T09:02:18.796Z,19.27
2023-05-10T09:03:17.074Z,19.94
2023-05-10T09:04:17.113Z,20.55
2023-05-10T09:05:17.352Z,21.22
2023-05-10T09:06:17.039Z,21.67
2023-05-10T09:07:17.013Z,21.79
2023-05-10T09:08:17.017Z,21.98
2023-05-10T09:09:17.069Z,21.92
2023-05-10T09:10:17.004Z,21.61
2023-05-10T09:11:17.012Z,21.17
2023-05-10T09:12:17.014Z,20.87
2023-05-10T09:13:17.026Z,20.84
2023-05-10T09:14:16.963Z,21.20
2023-05-10T09:15:17.168Z,21.37
2023-05-10T09:16:21.997Z,21.33
2023-05-10T09:17:17.003Z,21.18
2023-05-10T09:18:17.019Z,21.09
2023-05-10T09:19:16.954Z,21.07
2023-05-10T09:20:16.917Z,21.66
2023-05-10T09:21:16.889Z,21.66
2023-05-10T09:22:16.866Z,21.73
2023-05-10T09:23:16.868Z,21.85
2023-05-10T09:24:16.900Z,21.80
2023-05-10T09:25:17.228Z,21.58
2023-05-10T09:26:16.829Z,21.29
2023-05-10T09:27:16.808Z,20.96
2023-05-10T09:28:16.811Z,20.62
2023-05-10T09:29:17.731Z,20.48
2023-05-10T09:30:16.797Z,21.06
2023-05-10T09:31:16.807Z,20.93
2023-05-10T09:32:16.798Z,21.17
2023-05-10T09:33:16.753Z,21.22
2023-05-10T09:34:16.757Z,20.92
2023-05-10T09:35:17.062Z,20.58
2023-05-10T09:36:16.720Z,20.37
2023-05-10T09:37:16.816Z,20.50
2023-05-10T09:38:16.677Z,20.72
2023-05-10T09:39:16.662Z,20.59
2023-05-10T09:40:16.682Z,20.34
2023-05-10T09:41:16.653Z,20.10
2023-05-10T09:42:16.727Z,20.37
2023-05-10T09:43:16.652Z,20.80
2023-05-10T09:44:16.629Z,21.99
2023-05-10T09:45:16.807Z,22.70
2023-05-10T09:46:16.706Z,22.43
2023-05-10T09:47:16.593Z,21.54
2023-05-10T09:48:16.572Z,20.85
2023-05-10T09:49:16.568Z,20.21
2023-05-10T09:50:16.566Z,19.82
2023-05-10T09:51:16.628Z,19.56
2023-05-10T09:52:16.540Z,19.21
2023-05-10T09:53:16.540Z,18.90
2023-05-10T09:54:16.522Z,18.56
2023-05-10T09:55:16.711Z,18.29
2023-05-10T09:56:16.580Z,18.03
2023-05-10T09:57:16.487Z,17.79
2023-05-10T09:58:16.491Z,17.48
2023-05-10T09:59:16.490Z,17.36
2023-05-10T10:00:16.524Z,17.24
2023-05-10T10:01:16.555Z,17.30
2023-05-10T10:02:16.453Z,17.46
2023-05-10T10:03:16.418Z,17.59
2023-05-10T10:04:16.416Z,17.79
2023-05-10T10:05:16.622Z,18.13
2023-05-10T10:06:28.970Z,18.16
2023-05-10T10:07:16.390Z,18.35
2023-05-10T10:08:16.363Z,18.31
2023-05-10T10:09:16.387Z,18.44
2023-05-10T10:10:16.409Z,18.63
2023-05-10T10:11:16.405Z,18.81
2023-05-10T10:12:16.315Z,18.88
2023-05-10T10:13:16.311Z,18.99
2023-05-10T10:14:16.408Z,18.80
2023-05-10T10:15:16.956Z,18.71
2023-05-10T10:16:16.333Z,18.62
2023-05-10T10:17:16.261Z,18.44
2023-05-10T10:18:16.386Z,18.43
2023-05-10T10:19:16.827Z,18.34
2023-05-10T10:20:16.440Z,18.35
2023-05-10T10:21:16.262Z,18.37
2023-05-10T10:22:16.209Z,18.28
2023-05-10T10:23:17.773Z,18.40
2023-05-10T10:24:16.249Z,18.58
2023-05-10T10:25:16.386Z,18.84
2023-05-10T10:26:16.170Z,19.04
2023-05-10T10:27:16.225Z,19.30
2023-05-10T10:28:16.158Z,19.45
2023-05-10T10:29:16.136Z,19.47
2023-05-10T10:30:16.171Z,19.63
2023-05-10T10:31:16.168Z,19.92
2023-05-10T10:32:16.109Z,19.95
2023-05-10T10:33:27.278Z,19.96
2023-05-10T10:34:16.339Z,20.02
2023-05-10T10:35:16.171Z,20.04
2023-05-10T10:36:16.080Z,20.26
2023-05-10T10:37:16.153Z,20.44
2023-05-10T10:38:16.160Z,20.62
2023-05-10T10:39:16.112Z,20.66
2023-05-10T10:40:16.057Z,21.00
2023-05-10T10:41:15.998Z,21.46
2023-05-10T10:42:16.024Z,21.83
2023-05-10T10:43:15.978Z,22.30
2023-05-10T10:44:15.986Z,22.51
2023-05-10T10:45:16.140Z,22.36
2023-05-10T10:46:16.029Z,22.00
2023-05-10T10:47:15.968Z,21.92
2023-05-10T10:48:15.952Z,22.57
2023-05-10T10:49:15.930Z,22.62
2023-05-10T10:50:15.965Z,22.41
2023-05-10T10:51:15.953Z,22.07
2023-05-10T10:52:15.905Z,21.58
2023-05-10T10:53:15.896Z,21.83
2023-05-10T10:54:15.879Z,21.82
2023-05-10T10:55:15.945Z,22.43
2023-05-10T10:56:15.968Z,23.06
2023-05-10T10:57:15.878Z,23.78
2023-05-10T10:58:15.835Z,24.06
2023-05-10T10:59:15.807Z,23.68
2023-05-10T11:00:15.819Z,23.43
2023-05-10T11:01:15.903Z,23.41
2023-05-10T11:02:15.809Z,23.24
2023-05-10T11:03:15.875Z,22.85
2023-05-10T11:04:15.778Z,22.65
2023-05-10T11:05:15.970Z,22.99
2023-05-10T11:06:15.774Z,23.48
2023-05-10T11:07:15.724Z,23.37
2023-05-10T11:08:15.731Z,23.80
2023-05-10T11:09:15.704Z,24.01
2023-05-10T11:10:15.764Z,23.98
2023-05-10T11:11:15.698Z,23.87
2023-05-10T11:12:15.689Z,23.48
2023-05-10T11:13:15.661Z,23.15
2023-05-10T11:14:15.656Z,22.70
2023-05-10T11:15:15.893Z,23.10
2023-05-10T11:16:15.734Z,23.80
2023-05-10T11:17:15.713Z,24.40
2023-05-10T11:18:15.633Z,24.51
2023-05-10T11:19:15.680Z,25.25
2023-05-10T11:20:16.001Z,25.01
2023-05-10T11:21:15.653Z,24.40
2023-05-10T11:22:15.579Z,24.35
2023-05-10T11:23:15.562Z,24.43
2023-05-10T11:24:15.637Z,24.17
2023-05-10T11:25:15.530Z,23.84
2023-05-10T11:26:15.523Z,23.71
2023-05-10T11:27:15.508Z,23.56
2023-05-10T11:28:15.503Z,24.10
2023-05-10T11:29:15.538Z,25.11
2023-05-10T11:30:15.939Z,25.44
2023-05-10T11:31:15.504Z,24.53
2023-05-10T11:32:15.462Z,23.92
2023-05-10T11:33:15.471Z,23.98
2023-05-10T11:34:15.480Z,23.76
2023-05-10T11:35:15.416Z,23.36
2023-05-10T11:36:15.416Z,23.00
2023-05-10T11:37:15.413Z,22.72
2023-05-10T11:38:15.419Z,22.54
2023-05-10T11:39:15.396Z,22.50
2023-05-10T11:40:15.674Z,22.54
2023-05-10T11:41:15.384Z,22.47
2023-05-10T11:42:15.373Z,22.39
2023-05-10T11:43:15.363Z,22.35
2023-05-10T11:44:15.363Z,22.33
2023-05-10T11:45:15.328Z,22.57
2023-05-10T11:46:15.340Z,23.43
2023-05-10T11:47:15.345Z,24.10
2023-05-10T11:48:15.399Z,24.01
2023-05-10T11:49:15.306Z,24.20
2023-05-10T11:50:15.634Z,24.24
2023-05-10T11:51:15.263Z,24.58
2023-05-10T11:52:15.292Z,25.48
2023-05-10T11:53:15.247Z,26.00
2023-05-10T11:54:15.247Z,26.75
2023-05-10T11:55:15.228Z,27.21
2023-05-10T11:56:15.260Z,27.35
2023-05-10T11:57:15.224Z,27.42
2023-05-10T11:58:15.197Z,26.97
2023-05-10T11:59:15.192Z,26.70
2023-05-10T12:00:15.447Z,27.00
2023-05-10T12:01:15.178Z,25.90
2023-05-10T12:02:15.198Z,25.25
2023-05-10T12:03:15.200Z,24.91
2023-05-10T12:04:15.298Z,25.10
2023-05-10T12:05:15.491Z,24.55
2023-05-10T12:06:15.134Z,24.01
2023-05-10T12:07:15.091Z,23.47
2023-05-10T12:08:15.103Z,22.93
2023-05-10T12:09:15.073Z,22.51
2023-05-10T12:10:15.272Z,21.92
2023-05-10T12:11:15.071Z,21.43
2023-05-10T12:12:15.035Z,21.05
2023-05-10T12:13:15.063Z,20.80
2023-05-10T12:14:15.028Z,20.47
2023-05-10T12:15:15.110Z,19.91
2023-05-10T12:16:15.047Z,19.49
2023-05-10T12:17:14.997Z,19.27
2023-05-10T12:18:15.010Z,19.02
2023-05-10T12:19:14.982Z,18.81
2023-05-10T12:20:15.197Z,18.58
2023-05-10T12:21:14.968Z,18.38
2023-05-10T12:22:14.938Z,18.26
2023-05-10T12:23:14.924Z,18.08
2023-05-10T12:24:14.935Z,17.98
2023-05-10T12:25:14.918Z,17.83
2023-05-10T12:26:14.902Z,17.71
2023-05-10T12:27:14.894Z,17.67
2023-05-10T12:28:14.876Z,17.63
2023-05-10T12:29:14.928Z,17.56
2023-05-10T12:30:14.979Z,17.46
2023-05-10T12:31:14.833Z,17.41
2023-05-10T12:32:14.913Z,17.36
2023-05-10T12:33:14.910Z,17.27
2023-05-10T12:34:14.901Z,17.16
2023-05-10T12:35:14.825Z,17.11
2023-05-10T12:36:14.790Z,17.02
2023-05-10T12:37:14.770Z,16.93
2023-05-10T12:38:14.772Z,16.83
2023-05-10T12:39:14.761Z,16.74
2023-05-10T12:40:14.908Z,16.64
2023-05-10T12:41:14.813Z,16.56
2023-05-10T12:42:14.726Z,16.46
2023-05-10T12:43:14.731Z,16.33
2023-05-10T12:44:14.726Z,16.24
2023-05-10T12:45:14.710Z,16.15
2023-05-10T12:46:14.735Z,16.02
2023-05-10T12:47:14.673Z,15.92
2023-05-10T12:48:14.757Z,15.88
2023-05-10T12:49:14.658Z,15.80
2023-05-10T12:50:14.825Z,15.77
2023-05-10T12:51:14.614Z,15.73
2023-05-10T12:52:14.621Z,15.68